To NAV CANADA Home Page Login to a new session Search on AWWS site Feedback and Comments Disclaimer Vers la page française équivalente Tips FAQ What's new on the site To the Forecasts and Observations / NOTAM section To "File a Flight Plan" website Publications and other links Update of the User's profile FIC Telephone Numbers My Weather Data Folder Route Weather Data Regional Weather Data Local Weather Data To the Forecasts and Observations / NOTAM section
Request Generated 09/26/2017 at 05:33:47 UTC . Weather information available at that time is displayed.

METAR/TAF

TORONTO/BILLY BISHOP TORONTO CITY AIRPORT/ON    (show WxCam)

METAR CYTZ 260500Z AUTO 05004KT 9SM CLR 24/20 A2998 RMK SLP154
DENSITY ALT 1300FT=
METAR CYTZ 260400Z AUTO 08003KT 040V120 9SM CLR 24/20 A2999 RMK
SLP156 DENSITY ALT 1200FT=
METAR CYTZ 260300Z AUTO 07003KT 9SM CLR 24/20 A2999 RMK SLP156
DENSITY ALT 1200FT=

TAF CYTZ 260138Z 2602/2702 08007KT P6SM SCT240
BECMG 2602/2604 VRB03KT
FM261000 VRB03KT P6SM SCT240 TEMPO 2610/2613 5SM BR
FM261700 18007KT P6SM SKC TEMPO 2617/2622 5SM HZ
BECMG 2700/2702 22007KT
RMK FCST BASED ON AUTO OBS. NXT FCST WILL BE ISSUED AT 260745Z=
Your time UTC time
Weather data provided by Environment Canada and NAV CANADA